ESMK/KID METAR and TAF weather

Enter ICAO airport designator
Station Type Date Time Source
ESMK METAR 2020/02/22 05:50 UTC NOAA

ESMK 220550Z AUTO 21015KT 190V250 3300 BR OVC005/// 06/05 Q1003


Station Type Date Time Source
ESMK Decoded METAR 2020/02/22 05:50 UTC NOAA

Kristianstad / Everod, Sweden (ESMK) 55-55N 014-05E
Feb 22, 2020 - 12:50 AM EST / 2020.02.22 0550 UTC
Wind: from the SSW (210 degrees) at 17 MPH (15 KT) (direction variable):0
Visibility: 2 mile(s):0
Sky conditions: overcast
Weather: mist
Temperature: 42 F (6 C)
Dew Point: 41 F (5 C)
Relative Humidity: 93%
Pressure (altimeter): 29.62 in. Hg (1003 hPa)
ob: ESMK 220550Z AUTO 21015KT 190V250 3300 BR OVC005/// 06/05 Q1003
cycle: 6

Station Type Date Time Source
ESMK TAF 2015/03/18 12:33 UTC NOAA

TAF ESMK 181130Z 1812/1824 13012KT CAVOK

Example: see airport list